createdAt,value
2023-02-27T00:04:37.537Z,100216.66
2023-02-27T00:09:41.831Z,100224.69
2023-02-27T00:14:43.643Z,100229.28
2023-02-27T00:19:45.490Z,100231.84
2023-02-27T00:24:47.137Z,100242.59
2023-02-27T00:29:48.782Z,100245.38
2023-02-27T00:34:50.479Z,100247.84
2023-02-27T00:39:52.404Z,100263.72
2023-02-27T00:44:54.411Z,100267.13
2023-02-27T00:49:56.077Z,100281.53
2023-02-27T00:54:57.682Z,100273.09
2023-02-27T00:59:59.363Z,100275.16
2023-02-27T01:05:01.012Z,100286.47
2023-02-27T01:10:02.990Z,100288.41
2023-02-27T01:15:06.080Z,100296.03
2023-02-27T01:20:10.548Z,100294.16
2023-02-27T01:25:12.210Z,100302.19
2023-02-27T01:30:15.801Z,100298.00
2023-02-27T01:35:19.264Z,100302.69
2023-02-27T01:40:21.011Z,100294.66
2023-02-27T01:45:28.395Z,100296.38
2023-02-27T01:50:31.758Z,100309.88
2023-02-27T01:55:37.949Z,100306.28
2023-02-27T02:00:40.158Z,100297.31
2023-02-27T02:05:43.995Z,100298.78
2023-02-27T02:10:48.398Z,100301.06
2023-02-27T02:16:19.508Z,100295.72
2023-02-27T02:21:30.043Z,100296.66
2023-02-27T02:26:35.484Z,100285.97
2023-02-27T02:32:01.099Z,100274.25
2023-02-27T02:37:57.002Z,100280.66
2023-02-27T02:43:13.755Z,100284.69
2023-02-27T02:48:27.045Z,100292.28
2023-02-27T02:53:59.739Z,100293.38
2023-02-27T02:59:16.820Z,100296.88
2023-02-27T03:04:21.063Z,100290.97
2023-02-27T03:09:34.768Z,100308.16
2023-02-27T03:14:54.265Z,100304.06
2023-02-27T03:20:01.992Z,100307.38
2023-02-27T03:25:07.280Z,100314.97
2023-02-27T03:30:14.085Z,100315.84
2023-02-27T03:35:16.191Z,100320.47
2023-02-27T03:40:31.780Z,100341.97
2023-02-27T03:45:42.476Z,100333.19
2023-02-27T03:50:44.449Z,100337.19
2023-02-27T03:55:47.790Z,100337.59
2023-02-27T04:00:49.665Z,100347.09
2023-02-27T04:05:52.426Z,100338.38
2023-02-27T04:11:03.985Z,100346.03
2023-02-27T04:16:12.264Z,100348.09
2023-02-27T04:21:30.660Z,100357.06
2023-02-27T04:26:57.192Z,100352.28
2023-02-27T04:32:04.792Z,100356.19
2023-02-27T04:37:32.993Z,100355.19
2023-02-27T04:42:40.206Z,100382.50
2023-02-27T04:47:51.963Z,100363.72
2023-02-27T04:53:03.624Z,100356.19
2023-02-27T04:58:10.234Z,100363.63
2023-02-27T05:03:18.490Z,100359.19
2023-02-27T05:08:30.139Z,100372.91
2023-02-27T05:13:43.524Z,100379.66
2023-02-27T05:18:46.328Z,100371.81
2023-02-27T05:23:51.207Z,100376.56
2023-02-27T05:29:17.317Z,100377.72
2023-02-27T05:34:26.872Z,100386.50
2023-02-27T05:39:31.515Z,100375.66
2023-02-27T05:44:37.483Z,100379.38
2023-02-27T05:49:46.767Z,100380.53
2023-02-27T05:55:43.940Z,100394.75
2023-02-27T06:00:58.772Z,100410.72
2023-02-27T06:06:03.702Z,100418.69
2023-02-27T06:11:05.598Z,100433.72
2023-02-27T06:16:09.419Z,100437.63
2023-02-27T06:21:13.061Z,100441.94
2023-02-27T06:26:15.704Z,100449.13
2023-02-27T06:31:17.461Z,100466.81
2023-02-27T06:36:19.103Z,100464.94
2023-02-27T06:41:21.288Z,100485.47
2023-02-27T06:46:22.931Z,100504.75
2023-02-27T06:51:24.720Z,100503.41
2023-02-27T06:56:26.601Z,100504.66
2023-02-27T07:01:28.600Z,100509.97
2023-02-27T07:07:35.453Z,100520.66
2023-02-27T07:11:51.811Z,100521.97
2023-02-27T07:16:56.339Z,100519.25
2023-02-27T07:21:58.300Z,100531.63
2023-02-27T07:26:59.983Z,100513.06
2023-02-27T07:32:02.304Z,100515.41
2023-02-27T07:37:04.084Z,100510.81
2023-02-27T07:42:06.097Z,100515.34
2023-02-27T07:47:08.996Z,100521.13
2023-02-27T07:52:11.298Z,100521.16
2023-02-27T07:57:13.136Z,100519.47
2023-02-27T08:02:14.769Z,100537.78
2023-02-27T08:07:16.568Z,100536.50
2023-02-27T08:12:18.447Z,100537.72
2023-02-27T08:17:20.041Z,100548.31
2023-02-27T08:22:21.752Z,100543.53
2023-02-27T08:27:23.703Z,100555.31
2023-02-27T08:32:25.488Z,100554.53
2023-02-27T08:37:28.834Z,100558.06
2023-02-27T08:42:30.739Z,100552.91
2023-02-27T08:47:32.394Z,100553.53
2023-02-27T08:52:34.066Z,100554.97
2023-02-27T08:57:35.856Z,100562.81
2023-02-27T09:02:37.465Z,100560.25
2023-02-27T09:07:39.151Z,100552.00
2023-02-27T09:12:40.965Z,100547.19
2023-02-27T09:17:42.747Z,100554.13
2023-02-27T09:22:44.482Z,100561.28
2023-02-27T09:27:46.456Z,100542.72
2023-02-27T09:32:48.193Z,100538.31
2023-02-27T09:37:50.031Z,100553.81
2023-02-27T09:42:53.891Z,100565.03
2023-02-27T09:48:15.924Z,100565.25
2023-02-27T09:53:31.283Z,100563.81
2023-02-27T09:58:43.847Z,100565.88
2023-02-27T10:03:54.637Z,100586.13
2023-02-27T10:09:30.732Z,100593.16
2023-02-27T10:14:53.708Z,100574.47
2023-02-27T10:19:58.368Z,100594.63
2023-02-27T10:25:18.109Z,100605.53
2023-02-27T10:30:34.616Z,100590.22
2023-02-27T10:35:43.064Z,100584.38
2023-02-27T10:40:47.840Z,100590.28
2023-02-27T10:45:49.638Z,100590.91
2023-02-27T10:50:52.300Z,100591.47
2023-02-27T10:56:06.196Z,100587.22
2023-02-27T11:01:10.559Z,100586.16
2023-02-27T11:06:22.341Z,100568.09
2023-02-27T11:11:28.624Z,100572.13
2023-02-27T11:16:48.013Z,100556.59
2023-02-27T11:22:07.604Z,100554.41
2023-02-27T11:27:18.989Z,100575.63
2023-02-27T11:32:20.865Z,100571.44
2023-02-27T11:37:50.886Z,100579.44
2023-02-27T11:42:56.233Z,100568.34
2023-02-27T11:48:02.191Z,100553.94
2023-02-27T11:53:19.862Z,100547.09
2023-02-27T11:58:25.669Z,100538.06
2023-02-27T12:03:59.804Z,100543.22
2023-02-27T12:09:07.526Z,100522.03
2023-02-27T12:14:09.076Z,100543.56
2023-02-27T12:19:22.424Z,100551.53
2023-02-27T12:24:31.287Z,100538.41
2023-02-27T12:29:41.977Z,100543.09
2023-02-27T12:34:50.251Z,100559.69
2023-02-27T12:39:55.568Z,100543.22
2023-02-27T12:45:15.561Z,100561.50
2023-02-27T12:50:19.563Z,100540.25
2023-02-27T12:55:30.935Z,100551.84
2023-02-27T13:00:59.841Z,100553.94
2023-02-27T13:06:18.864Z,100542.19
2023-02-27T13:11:43.435Z,100549.88
2023-02-27T13:16:53.864Z,100553.00
2023-02-27T13:22:10.948Z,100560.53
2023-02-27T13:27:22.322Z,100547.22
2023-02-27T13:32:44.399Z,100543.94
2023-02-27T13:37:55.345Z,100537.56
2023-02-27T13:43:20.621Z,100541.59
2023-02-27T13:48:41.747Z,100539.22
2023-02-27T13:53:43.470Z,100549.34
2023-02-27T13:58:45.378Z,100547.91
2023-02-27T14:04:02.880Z,100551.84
2023-02-27T14:09:15.244Z,100546.63
2023-02-27T14:14:34.985Z,100560.16
2023-02-27T14:19:46.588Z,100537.91
2023-02-27T14:25:02.949Z,100535.41
2023-02-27T14:30:10.305Z,100543.06
2023-02-27T14:35:16.224Z,100550.69
2023-02-27T14:40:29.888Z,100551.72
2023-02-27T14:45:32.486Z,100557.84
2023-02-27T14:50:37.457Z,100555.38
2023-02-27T14:55:39.109Z,100557.44
2023-02-27T15:00:42.418Z,100559.78
2023-02-27T15:05:45.545Z,100562.13
2023-02-27T15:10:48.223Z,100569.09
2023-02-27T15:15:52.335Z,100575.22
2023-02-27T15:20:59.232Z,100577.31
2023-02-27T15:26:00.878Z,100579.50
2023-02-27T15:31:02.798Z,100574.38
2023-02-27T15:36:05.442Z,100582.34
2023-02-27T15:41:08.623Z,100576.59
2023-02-27T15:46:10.358Z,100580.44
2023-02-27T15:51:12.295Z,100592.56
2023-02-27T15:56:15.291Z,100599.09
2023-02-27T16:01:23.135Z,100613.47
2023-02-27T16:06:30.628Z,100614.25
2023-02-27T16:11:37.481Z,100601.81
2023-02-27T16:16:39.208Z,100615.03
2023-02-27T16:22:06.756Z,100620.00
2023-02-27T16:27:26.632Z,100627.38
2023-02-27T16:32:29.426Z,100635.47
2023-02-27T16:37:31.185Z,100632.41
2023-02-27T16:42:32.872Z,100634.34
2023-02-27T16:47:34.489Z,100645.66
2023-02-27T16:52:36.385Z,100648.41
2023-02-27T16:57:38.003Z,100662.25
2023-02-27T17:02:39.826Z,100665.41
2023-02-27T17:07:42.582Z,100689.91
2023-02-27T17:12:44.403Z,100684.75
2023-02-27T17:17:46.219Z,100694.56
2023-02-27T17:22:47.855Z,100701.47
2023-02-27T17:27:50.164Z,100699.88
2023-02-27T17:32:51.959Z,100712.25
2023-02-27T17:37:53.965Z,100713.75
2023-02-27T17:42:55.562Z,100727.16
2023-02-27T17:47:58.209Z,100733.50
2023-02-27T17:53:00.087Z,100744.66
2023-02-27T17:58:01.682Z,100751.59
2023-02-27T18:03:03.342Z,100747.81
2023-02-27T18:08:05.234Z,100753.22
2023-02-27T18:13:06.848Z,100758.19
2023-02-27T18:18:08.547Z,100775.03
2023-02-27T18:23:10.540Z,100775.63
2023-02-27T18:28:12.417Z,100773.06
2023-02-27T18:33:14.043Z,100785.56
2023-02-27T18:38:16.378Z,100791.00
2023-02-27T18:43:18.012Z,100790.53
2023-02-27T18:48:20.082Z,100810.06
2023-02-27T18:53:21.878Z,100807.66
2023-02-27T18:58:23.456Z,100804.56
2023-02-27T19:03:27.303Z,100800.63
2023-02-27T19:08:29.315Z,100814.09
2023-02-27T19:13:31.167Z,100820.03
2023-02-27T19:18:32.808Z,100825.44
2023-02-27T19:23:36.205Z,100825.25
2023-02-27T19:28:37.925Z,100832.88
2023-02-27T19:33:40.439Z,100835.38
2023-02-27T19:38:42.347Z,100842.91
2023-02-27T19:43:44.063Z,100850.06
2023-02-27T19:48:46.277Z,100850.06
2023-02-27T19:53:48.602Z,100845.41
2023-02-27T19:58:50.996Z,100847.03
2023-02-27T20:03:53.225Z,100859.63
2023-02-27T20:08:55.925Z,100854.13
2023-02-27T20:13:57.983Z,100863.28
2023-02-27T20:18:59.962Z,100862.19
2023-02-27T20:24:01.927Z,100878.16
2023-02-27T20:29:10.053Z,100898.38
2023-02-27T20:34:15.666Z,100902.53
2023-02-27T20:39:18.503Z,100902.53
2023-02-27T20:44:20.123Z,100902.31
2023-02-27T20:49:22.775Z,100903.38
2023-02-27T20:54:25.212Z,100889.50
2023-02-27T20:59:26.821Z,100868.28
2023-02-27T21:04:42.489Z,100888.72
2023-02-27T21:09:45.266Z,100890.59
2023-02-27T21:14:49.360Z,100876.13
2023-02-27T21:19:51.564Z,100884.59
2023-02-27T21:24:53.740Z,100886.41
2023-02-27T21:29:55.699Z,100902.72
2023-02-27T21:34:57.329Z,100893.50
2023-02-27T21:40:00.485Z,100893.66
2023-02-27T21:45:02.309Z,100910.53
2023-02-27T21:50:14.093Z,100912.84
2023-02-27T21:55:16.344Z,100916.94
2023-02-27T22:00:18.889Z,100927.53
2023-02-27T22:05:21.264Z,100917.22
2023-02-27T22:10:22.910Z,100923.06
2023-02-27T22:15:24.681Z,100915.25
2023-02-27T22:20:26.348Z,100907.78
2023-02-27T22:25:28.586Z,100910.44
2023-02-27T22:30:30.564Z,100907.84
2023-02-27T22:35:32.569Z,100909.63
2023-02-27T22:40:36.133Z,100909.81
2023-02-27T22:45:37.718Z,100920.63
2023-02-27T22:50:39.506Z,100926.59
2023-02-27T22:55:41.334Z,100916.31
2023-02-27T23:00:42.951Z,100911.53
2023-02-27T23:05:46.526Z,100903.66
2023-02-27T23:10:48.203Z,100909.59
2023-02-27T23:15:49.907Z,100901.16
2023-02-27T23:20:51.634Z,100911.34
2023-02-27T23:25:53.660Z,100911.59
2023-02-27T23:30:55.270Z,100916.50
2023-02-27T23:35:57.749Z,100909.53
2023-02-27T23:41:07.684Z,100917.88
2023-02-27T23:46:12.027Z,100910.69
2023-02-27T23:51:14.918Z,100917.50
2023-02-27T23:56:18.645Z,100923.06
